createdAt,value
2023-02-22T00:01:27.893Z,4.53
2023-02-22T00:03:55.860Z,3.53
2023-02-22T00:06:25.183Z,3.40
2023-02-22T00:08:53.813Z,3.47
2023-02-22T00:11:21.860Z,3.90
2023-02-22T00:13:51.504Z,3.77
2023-02-22T00:16:21.028Z,3.90
2023-02-22T00:18:49.236Z,3.30
2023-02-22T00:21:17.923Z,3.43
2023-02-22T00:23:47.555Z,2.80
2023-02-22T00:26:18.275Z,3.30
2023-02-22T00:28:47.725Z,3.67
2023-02-22T00:31:17.622Z,3.13
2023-02-22T00:33:45.885Z,4.20
2023-02-22T00:36:14.518Z,4.20
2023-02-22T00:38:42.632Z,3.67
2023-02-22T00:41:10.730Z,3.67
2023-02-22T00:43:38.721Z,4.17
2023-02-22T00:46:06.896Z,3.37
2023-02-22T00:48:36.289Z,3.40
2023-02-22T00:51:04.340Z,4.03
2023-02-22T00:53:32.320Z,3.43
2023-02-22T00:56:00.545Z,2.87
2023-02-22T00:58:28.838Z,3.23
2023-02-22T01:00:56.809Z,3.50
2023-02-22T01:03:24.810Z,3.00
2023-02-22T01:05:54.160Z,3.73
2023-02-22T01:08:25.125Z,3.10
2023-02-22T01:10:53.288Z,3.27
2023-02-22T01:13:21.690Z,3.60
2023-02-22T01:15:50.017Z,3.93
2023-02-22T01:18:18.230Z,3.57
2023-02-22T01:20:47.965Z,3.43
2023-02-22T01:23:17.606Z,2.67
2023-02-22T01:25:45.663Z,2.90
2023-02-22T01:28:14.152Z,2.77
2023-02-22T01:30:42.257Z,3.67
2023-02-22T01:33:12.775Z,2.90
2023-02-22T01:35:41.860Z,3.33
2023-02-22T01:38:10.340Z,2.70
2023-02-22T01:40:41.928Z,2.80
2023-02-22T01:43:18.336Z,2.47
2023-02-22T01:45:50.636Z,3.53
2023-02-22T01:48:21.528Z,3.13
2023-02-22T01:50:53.960Z,2.87
2023-02-22T01:53:23.224Z,2.33
2023-02-22T01:55:52.527Z,3.30
2023-02-22T01:58:20.831Z,2.57
2023-02-22T02:00:48.914Z,2.57
2023-02-22T02:03:21.659Z,2.77
2023-02-22T02:05:49.820Z,3.87
2023-02-22T02:08:24.240Z,2.43
2023-02-22T02:10:54.112Z,3.63
2023-02-22T02:13:22.147Z,3.10
2023-02-22T02:15:52.858Z,2.73
2023-02-22T02:18:21.039Z,3.10
2023-02-22T02:20:55.857Z,3.33
2023-02-22T02:23:41.052Z,3.07
2023-02-22T02:26:27.541Z,3.57
2023-02-22T02:29:15.728Z,3.13
2023-02-22T02:32:08.720Z,3.70
2023-02-22T02:34:38.148Z,2.87
2023-02-22T02:37:09.590Z,2.20
2023-02-22T02:39:38.363Z,2.57
2023-02-22T02:42:07.623Z,2.57
2023-02-22T02:44:38.152Z,2.73
2023-02-22T02:47:08.308Z,3.63
2023-02-22T02:49:37.866Z,2.43
2023-02-22T02:52:06.493Z,2.70
2023-02-22T02:54:34.794Z,3.00
2023-02-22T02:57:03.983Z,2.97
2023-02-22T02:59:32.876Z,2.13
2023-02-22T03:02:16.021Z,2.17
2023-02-22T03:04:50.018Z,2.33
2023-02-22T03:07:30.307Z,2.50
2023-02-22T03:10:02.140Z,2.70
2023-02-22T03:12:34.063Z,2.43
2023-02-22T03:15:05.070Z,2.67
2023-02-22T03:17:36.743Z,2.63
2023-02-22T03:20:09.707Z,2.60
2023-02-22T03:22:44.189Z,2.50
2023-02-22T03:25:14.039Z,2.30
2023-02-22T03:27:43.843Z,2.87
2023-02-22T03:30:13.043Z,2.13
2023-02-22T03:32:42.720Z,1.80
2023-02-22T03:35:13.178Z,2.80
2023-02-22T03:37:41.916Z,2.43
2023-02-22T03:40:14.891Z,2.87
2023-02-22T03:42:44.484Z,2.10
2023-02-22T03:45:13.174Z,2.27
2023-02-22T03:47:42.618Z,2.40
2023-02-22T03:50:15.291Z,2.10
2023-02-22T03:52:43.433Z,2.90
2023-02-22T03:55:11.531Z,2.60
2023-02-22T03:57:41.291Z,2.63
2023-02-22T04:00:10.805Z,3.60
2023-02-22T04:02:38.819Z,2.40
2023-02-22T04:05:07.563Z,2.77
2023-02-22T04:07:37.251Z,2.67
2023-02-22T04:10:08.542Z,2.93
2023-02-22T04:12:36.848Z,2.13
2023-02-22T04:15:05.566Z,2.73
2023-02-22T04:17:33.861Z,2.57
2023-02-22T04:20:02.238Z,3.03
2023-02-22T04:22:30.510Z,2.83
2023-02-22T04:25:00.182Z,2.20
2023-02-22T04:27:28.439Z,3.80
2023-02-22T04:29:56.720Z,2.57
2023-02-22T04:32:24.756Z,2.37
2023-02-22T04:34:52.724Z,2.53
2023-02-22T04:37:20.664Z,2.50
2023-02-22T04:39:48.725Z,2.00
2023-02-22T04:42:18.082Z,2.27
2023-02-22T04:44:46.027Z,1.97
2023-02-22T04:47:14.827Z,2.20
2023-02-22T04:49:42.772Z,2.03
2023-02-22T04:52:10.723Z,2.37
2023-02-22T04:54:38.899Z,3.20
2023-02-22T04:57:06.905Z,1.93
2023-02-22T04:59:36.409Z,2.47
2023-02-22T05:02:04.477Z,2.97
2023-02-22T05:04:32.481Z,2.20
2023-02-22T05:07:00.528Z,2.63
2023-02-22T05:09:28.495Z,2.53
2023-02-22T05:11:56.439Z,2.73
2023-02-22T05:14:26.647Z,2.90
2023-02-22T05:16:57.142Z,3.07
2023-02-22T05:19:25.192Z,2.30
2023-02-22T05:21:53.474Z,2.53
2023-02-22T05:24:21.458Z,2.43
2023-02-22T05:26:51.266Z,2.53
2023-02-22T05:29:19.301Z,2.10
2023-02-22T05:31:47.297Z,2.10
2023-02-22T05:34:16.847Z,2.47
2023-02-22T05:36:46.476Z,2.87
2023-02-22T05:39:14.528Z,2.37
2023-02-22T05:41:42.502Z,3.03
2023-02-22T05:44:10.531Z,3.23
2023-02-22T05:46:38.539Z,2.43
2023-02-22T05:49:06.558Z,2.60
2023-02-22T05:51:35.892Z,2.83
2023-02-22T05:54:03.911Z,2.50
2023-02-22T05:56:31.880Z,2.37
2023-02-22T05:58:59.849Z,3.03
2023-02-22T06:01:28.113Z,2.37
2023-02-22T06:03:56.086Z,2.43
2023-02-22T06:06:24.272Z,2.97
2023-02-22T06:08:53.630Z,2.83
2023-02-22T06:11:21.610Z,2.43
2023-02-22T06:13:52.964Z,2.37
2023-02-22T06:16:21.709Z,2.67
2023-02-22T06:18:50.200Z,2.63
2023-02-22T06:21:18.591Z,2.87
2023-02-22T06:23:46.950Z,3.17
2023-02-22T06:26:18.412Z,1.97
2023-02-22T06:28:46.575Z,2.93
2023-02-22T06:31:14.733Z,2.87
2023-02-22T06:33:42.869Z,2.50
2023-02-22T06:36:11.453Z,2.67
2023-02-22T06:38:39.715Z,2.90
2023-02-22T06:41:07.740Z,2.90
2023-02-22T06:43:37.047Z,3.33
2023-02-22T06:46:05.308Z,2.97
2023-02-22T06:48:33.322Z,3.20
2023-02-22T06:51:01.314Z,2.70
2023-02-22T06:53:29.544Z,3.10
2023-02-22T06:55:57.518Z,2.90
2023-02-22T06:58:25.484Z,3.27
2023-02-22T07:00:54.938Z,2.77
2023-02-22T07:03:23.041Z,2.60
2023-02-22T07:05:51.230Z,2.57
2023-02-22T07:08:19.238Z,3.13
2023-02-22T07:10:48.515Z,1.90
2023-02-22T07:13:16.652Z,2.50
2023-02-22T07:15:44.973Z,2.10
2023-02-22T07:18:16.172Z,1.77
2023-02-22T07:20:44.818Z,1.77
2023-02-22T07:23:15.058Z,1.43
2023-02-22T07:25:43.066Z,2.03
2023-02-22T07:28:11.820Z,1.63
2023-02-22T07:30:39.828Z,1.77
2023-02-22T07:33:08.683Z,1.93
2023-02-22T07:35:39.526Z,2.17
2023-02-22T07:38:08.370Z,1.80
2023-02-22T07:40:38.619Z,2.17
2023-02-22T07:43:07.349Z,2.17
2023-02-22T07:45:36.206Z,1.77
2023-02-22T07:48:04.939Z,2.00
2023-02-22T07:50:33.925Z,1.73
2023-02-22T07:53:04.820Z,1.80
2023-02-22T07:55:33.237Z,1.67
2023-02-22T07:58:02.236Z,1.53
2023-02-22T08:00:30.882Z,1.70
2023-02-22T08:02:59.337Z,1.97
2023-02-22T08:05:27.921Z,1.47
2023-02-22T08:07:56.336Z,1.27
2023-02-22T08:10:26.449Z,2.10
2023-02-22T08:12:54.988Z,1.47
2023-02-22T08:15:24.266Z,1.37
2023-02-22T08:17:53.393Z,1.90
2023-02-22T08:20:21.733Z,1.23
2023-02-22T08:22:50.012Z,1.13
2023-02-22T08:25:18.464Z,1.30
2023-02-22T08:27:48.451Z,1.73
2023-02-22T08:30:17.111Z,1.77
2023-02-22T08:32:45.506Z,1.00
2023-02-22T08:35:14.880Z,1.43
2023-02-22T08:37:44.247Z,1.60
2023-02-22T08:40:14.766Z,1.47
2023-02-22T08:42:43.593Z,0.83
2023-02-22T08:45:13.383Z,1.00
2023-02-22T08:47:41.694Z,1.43
2023-02-22T08:50:10.239Z,1.00
2023-02-22T08:52:38.538Z,1.30
2023-02-22T08:55:07.257Z,1.30
2023-02-22T08:57:35.857Z,1.30
2023-02-22T09:00:04.758Z,0.93
2023-02-22T09:02:34.628Z,1.30
2023-02-22T09:05:03.101Z,1.50
2023-02-22T09:07:31.426Z,1.40
2023-02-22T09:09:59.704Z,2.47
2023-02-22T09:12:28.325Z,2.20
2023-02-22T09:14:56.623Z,2.83
2023-02-22T09:17:24.898Z,2.00
2023-02-22T09:19:54.588Z,2.73
2023-02-22T09:22:22.890Z,1.83
2023-02-22T09:24:51.199Z,2.10
2023-02-22T09:27:20.308Z,3.23
2023-02-22T09:29:49.716Z,2.70
2023-02-22T09:32:18.660Z,2.70
2023-02-22T09:34:48.487Z,3.10
2023-02-22T09:37:18.608Z,2.50
2023-02-22T09:39:46.925Z,2.57
2023-02-22T09:42:17.257Z,3.33
2023-02-22T09:44:46.076Z,3.10
2023-02-22T09:47:18.331Z,3.30
2023-02-22T09:49:49.072Z,2.43
2023-02-22T09:52:20.981Z,3.20
2023-02-22T09:54:51.833Z,3.07
2023-02-22T09:57:21.289Z,2.70
2023-02-22T09:59:50.296Z,3.17
2023-02-22T10:02:22.165Z,2.77
2023-02-22T10:04:51.402Z,2.87
2023-02-22T10:07:22.866Z,2.47
2023-02-22T10:09:51.305Z,2.73
2023-02-22T10:12:23.093Z,2.50
2023-02-22T10:15:16.072Z,2.83
2023-02-22T10:17:46.734Z,2.20
2023-02-22T10:20:19.369Z,2.97
2023-02-22T10:22:53.573Z,2.40
2023-02-22T10:25:22.268Z,2.47
2023-02-22T10:27:53.185Z,3.10
2023-02-22T10:30:25.275Z,2.37
2023-02-22T10:32:55.202Z,3.00
2023-02-22T10:35:23.992Z,2.87
2023-02-22T10:37:54.515Z,3.80
2023-02-22T10:40:31.996Z,3.97
2023-02-22T10:43:02.585Z,2.90
2023-02-22T10:45:32.837Z,2.67
2023-02-22T10:48:01.920Z,3.20
2023-02-22T10:50:30.602Z,2.83
2023-02-22T10:53:00.537Z,2.83
2023-02-22T10:55:28.829Z,2.40
2023-02-22T10:58:01.580Z,3.30
2023-02-22T11:00:33.588Z,2.97
2023-02-22T11:03:02.340Z,2.73
2023-02-22T11:05:37.013Z,4.20
2023-02-22T11:08:33.294Z,3.13
2023-02-22T11:11:04.848Z,3.93
2023-02-22T11:13:33.580Z,4.10
2023-02-22T11:16:03.261Z,4.13
2023-02-22T11:18:32.073Z,4.40
2023-02-22T11:21:04.293Z,2.83
2023-02-22T11:23:32.583Z,3.47
2023-02-22T11:26:06.772Z,4.03
2023-02-22T11:28:35.077Z,3.63
2023-02-22T11:31:13.754Z,3.90
2023-02-22T11:33:42.100Z,4.23
2023-02-22T11:36:10.804Z,4.07
2023-02-22T11:38:39.273Z,3.33
2023-02-22T11:41:10.175Z,4.00
2023-02-22T11:43:38.512Z,3.50
2023-02-22T11:46:08.581Z,3.20
2023-02-22T11:48:39.401Z,4.00
2023-02-22T11:51:16.983Z,3.37
2023-02-22T11:53:53.071Z,3.20
2023-02-22T11:56:36.968Z,3.53
2023-02-22T11:59:08.680Z,3.73
2023-02-22T12:01:39.046Z,3.07
2023-02-22T12:04:30.429Z,3.63
2023-02-22T12:07:02.813Z,3.37
2023-02-22T12:09:34.032Z,3.30
2023-02-22T12:12:06.917Z,3.70
2023-02-22T12:14:36.521Z,3.50
2023-02-22T12:17:10.112Z,3.53
2023-02-22T12:19:39.144Z,3.27
2023-02-22T12:22:09.110Z,3.83
2023-02-22T12:24:38.451Z,3.60
2023-02-22T12:27:09.753Z,3.33
2023-02-22T12:29:39.842Z,4.17
2023-02-22T12:32:08.597Z,3.53
2023-02-22T12:34:38.443Z,3.57
2023-02-22T12:37:08.697Z,3.97
2023-02-22T12:39:52.191Z,3.17
2023-02-22T12:42:23.074Z,3.50
2023-02-22T12:44:54.177Z,4.33
2023-02-22T12:47:23.816Z,3.90
2023-02-22T12:49:53.700Z,3.70
2023-02-22T12:52:34.747Z,3.63
2023-02-22T12:55:04.178Z,4.27
2023-02-22T12:57:36.986Z,5.10
2023-02-22T13:00:06.681Z,4.00
2023-02-22T13:02:36.905Z,3.27
2023-02-22T13:05:05.216Z,4.40
2023-02-22T13:07:37.105Z,3.30
2023-02-22T13:10:09.749Z,4.40
2023-02-22T13:12:42.802Z,4.00
2023-02-22T13:15:12.889Z,3.83
2023-02-22T13:17:43.243Z,3.87
2023-02-22T13:20:14.315Z,3.87
2023-02-22T13:22:44.011Z,3.63
2023-02-22T13:25:13.132Z,3.83
2023-02-22T13:27:44.196Z,4.33
2023-02-22T13:30:16.967Z,3.70
2023-02-22T13:32:51.770Z,3.63
2023-02-22T13:35:26.612Z,3.50
2023-02-22T13:38:04.239Z,4.93
2023-02-22T13:40:53.658Z,3.30
2023-02-22T13:43:37.245Z,3.73
2023-02-22T13:46:13.239Z,3.87
2023-02-22T13:48:45.406Z,3.43
2023-02-22T13:51:16.016Z,3.23
2023-02-22T13:53:45.895Z,3.43
2023-02-22T13:56:14.491Z,3.73
2023-02-22T13:58:51.096Z,2.73
2023-02-22T14:01:38.835Z,4.30
2023-02-22T14:04:21.945Z,2.60
2023-02-22T14:06:51.218Z,3.17
2023-02-22T14:09:19.998Z,3.93
2023-02-22T14:11:48.436Z,3.57
2023-02-22T14:14:19.160Z,3.17
2023-02-22T14:16:49.278Z,3.30
2023-02-22T14:19:20.427Z,3.93
2023-02-22T14:21:56.876Z,3.13
2023-02-22T14:24:25.182Z,3.90
2023-02-22T14:27:00.850Z,2.77
2023-02-22T14:29:30.566Z,3.23
2023-02-22T14:32:03.470Z,2.87
2023-02-22T14:34:42.546Z,2.90
2023-02-22T14:37:11.308Z,2.80
2023-02-22T14:39:39.967Z,2.40
2023-02-22T14:42:08.741Z,3.03
2023-02-22T14:44:39.913Z,2.87
2023-02-22T14:47:08.818Z,3.00
2023-02-22T14:49:38.983Z,3.73
2023-02-22T14:52:08.881Z,3.23
2023-02-22T14:54:39.865Z,3.60
2023-02-22T14:57:15.046Z,3.50
2023-02-22T14:59:49.840Z,3.37
2023-02-22T15:02:20.148Z,3.20
2023-02-22T15:04:52.361Z,3.63
2023-02-22T15:07:27.318Z,4.13
2023-02-22T15:10:09.846Z,3.43
2023-02-22T15:12:38.316Z,3.00
2023-02-22T15:15:15.070Z,3.67
2023-02-22T15:17:46.424Z,3.33
2023-02-22T15:20:15.846Z,3.00
2023-02-22T15:22:44.125Z,3.43
2023-02-22T15:25:13.169Z,3.03
2023-02-22T15:27:41.544Z,3.60
2023-02-22T15:30:11.000Z,2.90
2023-02-22T15:32:53.284Z,2.83
2023-02-22T15:35:23.478Z,2.70
2023-02-22T15:38:00.255Z,3.33
2023-02-22T15:40:33.178Z,2.83
2023-02-22T15:43:02.642Z,3.73
2023-02-22T15:45:32.386Z,3.63
2023-02-22T15:48:02.089Z,3.33
2023-02-22T15:50:30.805Z,3.53
2023-02-22T15:52:59.546Z,3.57
2023-02-22T15:55:28.679Z,3.80
2023-02-22T15:57:58.027Z,3.20
2023-02-22T16:00:30.517Z,3.70
2023-02-22T16:02:59.139Z,3.07
2023-02-22T16:05:32.967Z,3.90
2023-02-22T16:08:01.484Z,2.83
2023-02-22T16:10:30.953Z,3.80
2023-02-22T16:13:06.900Z,3.27
2023-02-22T16:15:35.522Z,3.53
2023-02-22T16:18:19.663Z,3.30
2023-02-22T16:20:49.402Z,3.70
2023-02-22T16:23:25.213Z,3.97
2023-02-22T16:26:06.756Z,3.37
2023-02-22T16:28:36.153Z,3.23
2023-02-22T16:31:04.802Z,3.67
2023-02-22T16:33:33.910Z,3.87
2023-02-22T16:36:08.640Z,3.60
2023-02-22T16:38:39.041Z,4.03
2023-02-22T16:41:08.091Z,4.17
2023-02-22T16:43:36.663Z,4.97
2023-02-22T16:46:06.843Z,4.63
2023-02-22T16:48:38.172Z,4.53
2023-02-22T16:51:14.821Z,4.27
2023-02-22T16:53:43.211Z,4.70
2023-02-22T16:56:11.676Z,5.27
2023-02-22T16:58:40.263Z,5.13
2023-02-22T17:01:08.793Z,4.90
2023-02-22T17:03:37.246Z,4.93
2023-02-22T17:06:06.168Z,4.30
2023-02-22T17:08:36.014Z,5.03
2023-02-22T17:11:04.357Z,5.47
2023-02-22T17:13:32.736Z,5.47
2023-02-22T17:16:01.412Z,5.60
2023-02-22T17:18:33.995Z,4.90
2023-02-22T17:21:03.705Z,5.17
2023-02-22T17:23:32.023Z,4.53
2023-02-22T17:26:02.173Z,4.17
2023-02-22T17:28:30.629Z,4.17
2023-02-22T17:31:01.458Z,4.30
2023-02-22T17:33:30.902Z,3.73
2023-02-22T17:35:59.836Z,3.53
2023-02-22T17:38:30.038Z,3.77
2023-02-22T17:40:58.984Z,4.43
2023-02-22T17:43:28.877Z,3.90
2023-02-22T17:45:57.256Z,3.40
2023-02-22T17:48:25.790Z,3.57
2023-02-22T17:50:54.336Z,3.47
2023-02-22T17:53:25.403Z,2.53
2023-02-22T17:55:53.824Z,2.50
2023-02-22T17:58:23.605Z,2.67
2023-02-22T18:00:59.370Z,2.67
2023-02-22T18:03:27.844Z,3.67
2023-02-22T18:05:57.586Z,3.03
2023-02-22T18:08:26.124Z,2.83
2023-02-22T18:10:56.505Z,3.70
2023-02-22T18:13:25.198Z,3.70
2023-02-22T18:15:54.964Z,2.93
2023-02-22T18:18:23.328Z,3.50
2023-02-22T18:20:55.642Z,3.47
2023-02-22T18:23:27.967Z,2.67
2023-02-22T18:26:09.726Z,3.17
2023-02-22T18:28:39.332Z,3.17
2023-02-22T18:31:10.032Z,3.20
2023-02-22T18:33:38.429Z,3.63
2023-02-22T18:36:07.119Z,3.67
2023-02-22T18:38:35.715Z,3.90
2023-02-22T18:41:04.455Z,3.67
2023-02-22T18:43:34.338Z,3.00
2023-02-22T18:46:11.156Z,3.77
2023-02-22T18:48:39.651Z,3.60
2023-02-22T18:51:09.800Z,3.13
2023-02-22T18:53:38.778Z,3.53
2023-02-22T18:56:07.140Z,3.80
2023-02-22T18:58:35.453Z,3.80
2023-02-22T19:01:03.870Z,3.27
2023-02-22T19:03:33.524Z,2.97
2023-02-22T19:06:05.251Z,3.40
2023-02-22T19:08:33.598Z,3.00
2023-02-22T19:11:06.400Z,3.27
2023-02-22T19:13:36.749Z,3.53
2023-02-22T19:16:05.213Z,3.17
2023-02-22T19:18:34.965Z,3.30
2023-02-22T19:21:03.727Z,2.67
2023-02-22T19:23:34.772Z,3.10
2023-02-22T19:26:04.015Z,2.30
2023-02-22T19:28:34.855Z,3.30
2023-02-22T19:31:15.881Z,2.63
2023-02-22T19:33:45.794Z,3.17
2023-02-22T19:36:14.345Z,3.20
2023-02-22T19:38:42.880Z,2.80
2023-02-22T19:41:12.403Z,2.80
2023-02-22T19:43:40.763Z,2.90
2023-02-22T19:46:09.621Z,2.63
2023-02-22T19:48:38.580Z,2.67
2023-02-22T19:51:09.073Z,2.30
2023-02-22T19:53:39.098Z,2.30
2023-02-22T19:56:09.633Z,3.07
2023-02-22T19:58:38.268Z,3.17
2023-02-22T20:01:13.276Z,2.53
2023-02-22T20:03:42.499Z,2.60
2023-02-22T20:06:16.265Z,2.57
2023-02-22T20:08:44.901Z,2.73
2023-02-22T20:11:13.890Z,3.10
2023-02-22T20:13:43.676Z,2.43
2023-02-22T20:16:15.894Z,2.80
2023-02-22T20:18:44.295Z,2.53
2023-02-22T20:21:14.856Z,2.50
2023-02-22T20:23:44.473Z,2.60
2023-02-22T20:26:15.515Z,2.40
2023-02-22T20:28:43.853Z,2.70
2023-02-22T20:31:13.884Z,3.17
2023-02-22T20:33:42.767Z,2.63
2023-02-22T20:36:11.427Z,2.83
2023-02-22T20:38:41.479Z,3.60
2023-02-22T20:41:09.847Z,2.53
2023-02-22T20:43:39.637Z,3.53
2023-02-22T20:46:08.439Z,2.43
2023-02-22T20:48:36.931Z,2.73
2023-02-22T20:51:08.384Z,3.10
2023-02-22T20:53:36.751Z,2.80
2023-02-22T20:56:07.610Z,3.08
2023-02-22T20:58:36.251Z,2.30
2023-02-22T21:01:05.459Z,2.40
2023-02-22T21:03:34.333Z,2.53
2023-02-22T21:06:02.790Z,2.67
2023-02-22T21:08:31.267Z,3.00
2023-02-22T21:10:59.657Z,2.33
2023-02-22T21:13:29.363Z,2.57
2023-02-22T21:15:57.638Z,2.43
2023-02-22T21:18:26.239Z,2.77
2023-02-22T21:20:54.510Z,2.90
2023-02-22T21:23:22.839Z,3.33
2023-02-22T21:25:52.083Z,2.50
2023-02-22T21:28:20.405Z,2.27
2023-02-22T21:30:50.133Z,2.37
2023-02-22T21:33:18.669Z,2.30
2023-02-22T21:35:47.356Z,3.00
2023-02-22T21:38:15.634Z,2.67
2023-02-22T21:40:44.698Z,2.47
2023-02-22T21:43:13.139Z,2.03
2023-02-22T21:45:41.584Z,2.80
2023-02-22T21:48:11.255Z,2.33
2023-02-22T21:50:39.635Z,3.00
2023-02-22T21:53:08.631Z,2.80
2023-02-22T21:55:38.644Z,2.87
2023-02-22T21:58:07.007Z,2.60
2023-02-22T22:00:38.450Z,2.33
2023-02-22T22:03:11.594Z,2.97
2023-02-22T22:05:45.283Z,2.40
2023-02-22T22:08:19.483Z,2.70
2023-02-22T22:10:55.291Z,2.30
2023-02-22T22:13:23.733Z,2.33
2023-02-22T22:15:52.089Z,3.03
2023-02-22T22:18:20.676Z,2.80
2023-02-22T22:20:51.875Z,2.67
2023-02-22T22:23:20.171Z,2.70
2023-02-22T22:25:51.414Z,2.90
2023-02-22T22:28:20.653Z,2.87
2023-02-22T22:30:49.019Z,2.67
2023-02-22T22:33:17.752Z,2.47
2023-02-22T22:35:46.026Z,2.43
2023-02-22T22:38:15.688Z,3.10
2023-02-22T22:40:44.006Z,2.93
2023-02-22T22:43:12.292Z,2.80
2023-02-22T22:45:40.978Z,2.33
2023-02-22T22:48:14.854Z,2.60
2023-02-22T22:50:46.462Z,2.67
2023-02-22T22:53:16.662Z,2.57
2023-02-22T22:55:45.118Z,3.17
2023-02-22T22:58:13.400Z,3.10
2023-02-22T23:00:42.112Z,2.37
2023-02-22T23:03:11.097Z,2.20
2023-02-22T23:05:39.865Z,2.80
2023-02-22T23:08:11.094Z,2.20
2023-02-22T23:10:40.960Z,2.13
2023-02-22T23:13:11.072Z,1.83
2023-02-22T23:15:42.980Z,2.60
2023-02-22T23:18:12.448Z,2.00
2023-02-22T23:20:40.744Z,2.40
2023-02-22T23:23:14.700Z,2.67
2023-02-22T23:25:49.632Z,2.50
2023-02-22T23:28:18.139Z,2.27
2023-02-22T23:30:46.477Z,2.30
2023-02-22T23:33:14.749Z,2.57
2023-02-22T23:35:43.087Z,2.37
2023-02-22T23:38:11.362Z,2.20
2023-02-22T23:40:40.269Z,2.60
2023-02-22T23:43:12.049Z,2.47
2023-02-22T23:45:40.382Z,2.03
2023-02-22T23:48:08.665Z,2.50
2023-02-22T23:50:37.050Z,2.80
2023-02-22T23:53:05.961Z,2.37
2023-02-22T23:55:39.093Z,2.73
2023-02-22T23:58:07.515Z,2.23
